Hauptseite
METAR-TAF:

METAR-TAF

Flughäfen :

Siegen, Deutschland

Siegerlandflughafen

Breite: 50-42-28N, Länge: 008-04-59E, Höhe: 602 m

Beobachtung

Neuester Wetterbericht von vor 17 Minuten, um 15:20 UTC
Wind 4 kt aus West/Südwest
Temperatur 22°C
Luftfeuchtigkeit 35%
Luftdruck 1020 hPa
Sichtweite 10 km oder mehr
keine Wolken unter 1500 m und keine Kumulonimbus oder Gewitterwolken

METAR: EDGS 211520Z 25004KT CAVOK 22/06 Q1020

Zeit: 17:37 (15:37 UTC)

Prognose

Neuester Wetterbericht von vor 1 Stunde und 37 Minuten, um 14:00 UTC
Gültige Prognose vom 21 um 15 UTC bis 21 um 24 UTC
Wind 6 kt aus Nord/Nordwest
Sichtweite 10 km oder mehr
keine Wolken unter 1500 m und keine Kumulonimbus oder Gewitterwolken
Zeitweise
vom 21 um 15 UTC bis 21 um 17 UTC
Wind 7 kt aus West
Übergehend zu
vom 21 um 18 UTC bis 21 um 21 UTC
Wind 5 kt aus Ost

TAF: EDGS 211400Z 2115/2124 34006KT CAVOK TEMPO 2115/2117 28007KT BECMG 2118/2121 09005KT

Wetterbeobachtungen und Prognosen von mehr als 4000 Flughäfen (METAR und TAF Bericht).

Die verfügbaren Stationen werden durch gelbe und rote Markierungen auf der Karte dargestellt.

Führen Sie die Maus auf sie, um den Namen der Station zu sehen.

Darauf klicken, um die Beobachtung von Wetterbeobachtungen und Prognosen zu sehen.

Um die Karte zu ändern : klicken Sie auf den grünen Tasten mit einem schwarzen Kreuz Zum Vergrößern, auf den grünen Button mit einem Gedankenstrich zu verkleinern, oder auf die grünen Pfeile für benachbarte Karten.


METAR-TAF: